Time;durP1;ratioP1;P1;durP2;ratioP2;P2;SDS_P1;SDS_P2;PMS_P1;PMS_P2;Temp;Humidity;BMP_temperature;BMP_pressure;BME280_temperature;BME280_humidity;BME280_pressure;Samples;Min_cycle;Max_cycle;Signal;HPM_P1;HPM_P2
2022/10/16 00:01:06;;;;;;;2.35;2.08;;;;;;;21.47;49.04;100852.59;5015000;28;20072;-70
2022/10/16 00:03:35;;;;;;;3.78;2.53;;;;;;;21.45;49.33;100846.69;4993482;28;20037;-70
2022/10/16 00:06:01;;;;;;;3.88;2.40;;;;;;;21.42;49.44;100850.53;5016207;28;20080;-70
2022/10/16 00:08:26;;;;;;;3.92;2.55;;;;;;;21.44;49.10;100845.03;5014621;28;21127;-69
2022/10/16 00:10:52;;;;;;;2.92;2.13;;;;;;;21.47;49.36;100851.78;5017140;28;20037;-70
2022/10/16 00:13:19;;;;;;;3.60;2.20;;;;;;;21.43;49.19;100848.69;5016930;28;20742;-71
2022/10/16 00:15:46;;;;;;;3.65;2.13;;;;;;;21.42;48.93;100842.59;5011507;28;20041;-70
2022/10/16 00:18:14;;;;;;;2.85;2.00;;;;;;;21.42;49.35;100847.88;5013198;28;20033;-70
2022/10/16 00:20:40;;;;;;;3.05;2.50;;;;;;;21.38;49.37;100846.63;4987466;28;20048;-70
2022/10/16 00:23:05;;;;;;;2.80;2.17;;;;;;;21.42;49.37;100855.81;5014089;28;20038;-71
2022/10/16 00:25:32;;;;;;;3.22;2.22;;;;;;;21.40;49.64;100847.25;5014605;28;20749;-71
2022/10/16 00:27:59;;;;;;;3.50;2.38;;;;;;;21.45;49.62;100853.81;4996203;28;20044;-71
2022/10/16 00:30:27;;;;;;;8.07;2.85;;;;;;;21.41;49.58;100842.78;4996228;28;20029;-71
2022/10/16 00:32:53;;;;;;;3.00;2.20;;;;;;;21.41;49.55;100840.13;5016569;28;20041;-70
2022/10/16 00:35:18;;;;;;;3.88;2.38;;;;;;;21.43;49.76;100854.00;4990730;28;20086;-71
2022/10/16 00:37:44;;;;;;;5.05;2.60;;;;;;;21.41;49.65;100840.94;4994058;28;20729;-71
2022/10/16 00:40:10;;;;;;;3.13;2.35;;;;;;;21.41;49.83;100846.25;5021555;28;20402;-71
2022/10/16 00:42:35;;;;;;;3.80;2.63;;;;;;;21.47;49.76;100849.13;5017160;28;21393;-71
2022/10/16 00:45:02;;;;;;;3.35;2.40;;;;;;;21.43;49.45;100840.75;5017192;28;20040;-71
2022/10/16 00:47:45;;;;;;;3.90;2.60;;;;;;;21.42;49.70;100844.41;5017098;28;20541;-71
2022/10/16 00:50:13;;;;;;;4.07;2.30;;;;;;;21.46;49.91;100843.00;5015353;28;20597;-71
2022/10/16 00:52:43;;;;;;;4.78;2.55;;;;;;;21.46;49.80;100845.66;4995799;28;20056;-71
2022/10/16 00:55:09;;;;;;;3.00;2.13;;;;;;;21.46;49.77;100844.84;5016216;28;20558;-71
2022/10/16 00:57:37;;;;;;;3.47;2.40;;;;;;;21.45;49.74;100848.50;5019340;28;20033;-71
2022/10/16 01:00:05;;;;;;;4.28;2.50;;;;;;;21.45;49.72;100851.16;5017497;28;20038;-71
2022/10/16 01:02:30;;;;;;;3.00;2.42;;;;;;;21.47;49.85;100849.13;5011807;28;20033;-71
2022/10/16 01:04:56;;;;;;;3.50;2.45;;;;;;;21.48;49.88;100841.00;5015525;28;20048;-71
2022/10/16 01:07:31;;;;;;;3.40;2.35;;;;;;;21.46;49.88;100845.66;5003890;28;20391;-71
2022/10/16 01:10:09;;;;;;;3.38;2.22;;;;;;;21.46;49.80;100842.19;4999663;28;20095;-71
2022/10/16 01:12:47;;;;;;;5.68;2.38;;;;;;;21.46;49.75;100848.31;5016775;28;20522;-70
2022/10/16 01:15:29;;;;;;;3.88;2.28;;;;;;;21.45;49.63;100845.84;4999614;28;20099;-70
2022/10/16 01:18:00;;;;;;;4.78;2.20;;;;;;;21.49;49.86;100839.16;5018122;28;20124;-70
2022/10/16 01:20:31;;;;;;;3.13;2.25;;;;;;;21.45;49.62;100830.78;5017831;28;20041;-70
2022/10/16 01:23:19;;;;;;;4.55;2.60;;;;;;;21.46;49.83;100836.91;5004210;28;20032;-70
2022/10/16 01:25:53;;;;;;;4.00;2.70;;;;;;;21.46;49.88;100837.72;4987366;28;20523;-70
2022/10/16 01:28:24;;;;;;;2.63;2.03;;;;;;;21.47;49.60;100842.00;5017586;28;20055;-70
2022/10/16 01:30:54;;;;;;;3.60;2.22;;;;;;;21.40;49.82;100830.53;5014052;28;21043;-70
2022/10/16 01:33:21;;;;;;;;;;;;;;;21.45;49.92;100843.22;5015049;28;20037;-70
2022/10/16 01:36:02;;;;;;;3.00;2.22;;;;;;;21.49;49.57;100836.50;5016514;28;19975;-70
2022/10/16 01:38:39;;;;;;;3.15;2.20;;;;;;;21.45;49.52;100840.56;5013962;28;20041;-70
2022/10/16 01:41:14;;;;;;;5.25;2.55;;;;;;;21.46;49.85;100844.84;4982110;28;20545;-70
2022/10/16 01:44:12;;;;;;;2.83;2.45;;;;;;;21.44;49.77;100833.63;5014542;28;20535;-71
2022/10/16 01:46:42;;;;;;;4.20;2.28;;;;;;;21.42;49.78;100839.13;4988292;28;20056;-70
2022/10/16 01:49:09;;;;;;;;;;;;;;;21.45;49.84;100844.03;5010180;28;20041;-70
2022/10/16 01:51:37;;;;;;;3.03;2.10;;;;;;;21.45;49.78;100837.91;5011042;28;19964;-70
2022/10/16 01:54:07;;;;;;;2.92;2.00;;;;;;;21.44;49.81;100837.09;5013518;28;20048;-70
2022/10/16 01:56:35;;;;;;;2.63;2.10;;;;;;;21.46;49.68;100840.38;4989993;28;20057;-70
2022/10/16 01:59:06;;;;;;;2.60;2.13;;;;;;;21.49;49.59;100836.50;5014689;28;21297;-70
2022/10/16 02:01:34;;;;;;;2.53;2.00;;;;;;;21.48;49.65;100837.53;5015419;28;20530;-70
2022/10/16 02:04:07;;;;;;;4.78;1.92;;;;;;;21.46;49.87;100843.00;5018017;28;20330;-70
2022/10/16 02:06:32;;;;;;;2.58;2.00;;;;;;;21.46;50.05;100845.66;5015275;28;20703;-71
2022/10/16 02:08:59;;;;;;;4.55;2.03;;;;;;;21.45;49.52;100841.38;5012200;28;20168;-70
2022/10/16 02:11:24;;;;;;;3.53;2.15;;;;;;;21.44;49.90;100834.44;4996135;28;22000;-70
2022/10/16 02:13:55;;;;;;;2.78;2.22;;;;;;;21.42;49.65;100839.13;5001069;28;20037;-70
2022/10/16 02:16:21;;;;;;;2.65;2.10;;;;;;;21.44;49.63;100839.75;5020151;28;20124;-70
2022/10/16 02:18:46;;;;;;;3.88;1.92;;;;;;;21.46;49.65;100843.00;5010960;28;20450;-70
2022/10/16 02:21:25;;;;;;;3.53;2.30;;;;;;;21.44;49.82;100833.63;5010811;28;20778;-70
2022/10/16 02:24:02;;;;;;;3.78;2.30;;;;;;;21.47;49.69;100844.66;5016084;28;20059;-71
2022/10/16 02:26:47;;;;;;;3.28;2.00;;;;;;;21.47;49.88;100849.94;5016642;28;20053;-70
2022/10/16 02:29:16;;;;;;;3.15;2.00;;;;;;;21.44;49.79;100854.81;4984937;28;20399;-71
2022/10/16 02:31:48;;;;;;;2.55;2.10;;;;;;;21.47;49.94;100854.44;5014549;28;20034;-71
2022/10/16 02:34:16;;;;;;;3.53;2.50;;;;;;;21.46;49.80;100850.97;5012933;28;20046;-71
2022/10/16 02:36:43;;;;;;;3.75;1.73;;;;;;;21.46;49.89;100837.72;5009776;28;20121;-71
2022/10/16 02:39:10;;;;;;;3.45;2.17;;;;;;;21.44;49.87;100841.56;5004613;28;20395;-71
2022/10/16 02:41:35;;;;;;;4.30;2.10;;;;;;;21.42;49.65;100847.88;5015368;28;20052;-70
2022/10/16 02:44:01;;;;;;;2.95;2.20;;;;;;;21.44;49.66;100838.91;4971871;28;20037;-66
2022/10/16 02:46:26;;;;;;;2.63;2.00;;;;;;;21.46;49.58;100847.50;4993816;28;20049;-66
2022/10/16 02:48:52;;;;;;;3.78;2.10;;;;;;;21.41;49.78;100842.78;5010192;28;20041;-66
2022/10/16 02:51:18;;;;;;;5.72;2.65;;;;;;;21.42;49.85;100849.72;5014115;28;20068;-67
2022/10/16 02:53:43;;;;;;;3.00;2.00;;;;;;;21.39;50.02;100850.09;5011253;28;20034;-67
2022/10/16 02:56:09;;;;;;;2.75;1.92;;;;;;;21.38;49.75;100854.56;5011581;28;20049;-66
2022/10/16 02:58:34;;;;;;;3.25;2.40;;;;;;;21.44;49.77;100854.81;5012042;28;20037;-67
2022/10/16 03:01:00;;;;;;;2.92;2.25;;;;;;;21.41;49.75;100859.50;4971991;28;20044;-67
2022/10/16 03:03:26;;;;;;;5.07;2.25;;;;;;;21.42;49.80;100862.94;4993610;28;20042;-67
2022/10/16 03:05:51;;;;;;;3.42;2.08;;;;;;;21.42;49.64;100858.47;5014519;28;20456;-67
2022/10/16 03:08:17;;;;;;;2.92;2.03;;;;;;;21.39;49.48;100864.16;5017820;28;20045;-67
2022/10/16 03:10:42;;;;;;;3.03;2.15;;;;;;;21.42;49.91;100870.91;5011870;28;20041;-66
2022/10/16 03:13:08;;;;;;;3.00;2.00;;;;;;;21.39;49.73;100861.50;5018015;28;20562;-67
2022/10/16 03:15:33;;;;;;;2.78;2.00;;;;;;;21.42;49.53;100861.13;4983123;28;20038;-67
2022/10/16 03:18:00;;;;;;;2.00;1.85;;;;;;;21.42;49.83;100869.06;5018960;28;20503;-67
2022/10/16 03:20:26;;;;;;;3.13;1.95;;;;;;;21.44;49.84;100870.72;5013166;28;20048;-67
2022/10/16 03:22:51;;;;;;;1.90;1.80;;;;;;;21.39;49.69;100869.47;5017916;28;20120;-67
2022/10/16 03:25:17;;;;;;;3.53;2.20;;;;;;;21.42;49.83;100870.91;5016799;28;20537;-67
2022/10/16 03:27:43;;;;;;;2.65;1.95;;;;;;;21.46;49.46;100866.84;5010819;28;20038;-66
2022/10/16 03:30:09;;;;;;;2.25;1.80;;;;;;;21.44;49.59;100871.53;5017602;28;20123;-67
2022/10/16 03:32:34;;;;;;;3.80;2.15;;;;;;;21.41;49.89;100875.38;4985553;28;20068;-67
2022/10/16 03:35:00;;;;;;;3.33;1.83;;;;;;;21.42;49.77;100879.66;5016146;28;20041;-67
2022/10/16 03:37:25;;;;;;;2.38;1.77;;;;;;;21.42;49.86;100887.63;4997952;28;158259;-67
2022/10/16 03:39:51;;;;;;;2.20;1.80;;;;;;;21.43;49.60;100883.13;5007706;28;20037;-67
2022/10/16 03:42:17;;;;;;;2.13;1.75;;;;;;;21.43;49.78;100885.78;5018705;28;20041;-66
2022/10/16 03:44:42;;;;;;;2.92;1.70;;;;;;;21.42;49.77;100887.63;5016552;28;20029;-67
2022/10/16 03:47:08;;;;;;;3.90;2.30;;;;;;;21.39;49.56;100877.41;4996462;28;20384;-66
2022/10/16 03:49:33;;;;;;;2.47;1.75;;;;;;;21.42;49.78;100884.16;5000413;28;20103;-66
2022/10/16 03:51:59;;;;;;;3.10;1.85;;;;;;;21.41;49.61;100883.31;5015333;28;20106;-67
2022/10/16 03:54:24;;;;;;;3.47;1.83;;;;;;;21.45;49.53;100882.94;5013793;28;20042;-66
2022/10/16 03:56:50;;;;;;;2.22;2.00;;;;;;;21.44;49.46;100873.34;5011729;28;20359;-66
2022/10/16 03:59:15;;;;;;;1.92;1.75;;;;;;;21.41;49.37;100863.97;5013106;28;20042;-67
2022/10/16 04:01:41;;;;;;;2.50;2.15;;;;;;;21.40;49.50;100867.63;5014879;28;20037;-66
2022/10/16 04:04:06;;;;;;;2.17;1.88;;;;;;;21.41;49.49;100870.09;4985041;28;20040;-66
2022/10/16 04:06:32;;;;;;;2.13;1.80;;;;;;;21.39;49.72;100861.50;5011219;28;20045;-66
2022/10/16 04:08:57;;;;;;;2.63;2.00;;;;;;;21.41;49.69;100871.91;5012489;28;20049;-67
2022/10/16 04:11:23;;;;;;;3.42;2.00;;;;;;;21.35;49.74;100868.16;5013966;28;20037;-66
2022/10/16 04:13:48;;;;;;;1.92;1.60;;;;;;;21.36;49.60;100877.78;5012211;28;20045;-66
2022/10/16 04:16:14;;;;;;;3.47;1.70;;;;;;;21.37;49.60;100890.03;5016682;28;20045;-66
2022/10/16 04:18:39;;;;;;;6.38;2.13;;;;;;;21.39;49.70;100892.47;5017704;28;20034;-67
2022/10/16 04:21:06;;;;;;;2.97;2.00;;;;;;;21.39;49.70;100884.53;4961700;28;20041;-66
2022/10/16 04:23:31;;;;;;;3.28;1.80;;;;;;;21.38;49.55;100896.97;5020451;28;20069;-67
2022/10/16 04:25:57;;;;;;;1.70;1.58;;;;;;;21.36;49.76;100900.78;5018190;28;20061;-67
2022/10/16 04:28:23;;;;;;;2.33;2.10;;;;;;;21.38;49.67;100906.72;5015223;28;20095;-67
2022/10/16 04:30:48;;;;;;;2.20;1.73;;;;;;;21.40;49.43;100912.66;5016754;28;20037;-66
2022/10/16 04:33:14;;;;;;;2.03;1.60;;;;;;;21.37;49.74;100913.84;5018414;28;20091;-67
2022/10/16 04:35:39;;;;;;;2.58;1.55;;;;;;;21.37;49.71;100911.22;4990867;28;20480;-66
2022/10/16 04:38:05;;;;;;;2.97;1.73;;;;;;;21.35;49.74;100918.50;5015945;28;20068;-67
2022/10/16 04:40:36;;;;;;;4.28;2.00;;;;;;;21.36;49.46;100922.81;4995508;28;20049;-66
2022/10/16 04:43:02;;;;;;;1.98;1.60;;;;;;;21.35;49.92;100934.38;5019801;28;20037;-68
2022/10/16 04:45:28;;;;;;;1.58;1.48;;;;;;;21.36;49.34;100933.41;5018216;28;20398;-66
2022/10/16 04:47:57;;;;;;;2.70;1.90;;;;;;;21.35;49.69;100930.91;5014636;28;20037;-66
2022/10/16 04:50:22;;;;;;;3.50;1.92;;;;;;;21.34;49.50;100934.59;5018928;28;20043;-68
2022/10/16 04:53:03;;;;;;;2.58;2.00;;;;;;;21.35;49.69;100944.16;4992519;28;20029;-68
2022/10/16 04:55:29;;;;;;;3.30;1.90;;;;;;;21.37;49.38;100944.84;5018809;28;20045;-68
2022/10/16 04:57:54;;;;;;;4.10;2.08;;;;;;;21.36;49.79;100945.81;5019424;28;20483;-68
2022/10/16 05:00:22;;;;;;;2.17;1.80;;;;;;;21.31;49.77;100958.78;5017037;28;20041;-68
2022/10/16 05:02:49;;;;;;;2.33;1.88;;;;;;;21.36;49.54;100965.19;5017211;28;20037;-68
2022/10/16 05:05:14;;;;;;;2.10;1.60;;;;;;;21.34;49.75;100969.00;5021812;28;20034;-68
2022/10/16 05:07:40;;;;;;;1.90;1.55;;;;;;;21.34;49.73;100969.84;5017966;28;20111;-68
2022/10/16 05:10:06;;;;;;;2.63;1.95;;;;;;;21.36;49.45;100967.00;4991407;28;20040;-68
2022/10/16 05:12:31;;;;;;;3.22;1.90;;;;;;;21.34;49.52;100963.72;5018489;28;20593;-68
2022/10/16 05:14:58;;;;;;;2.00;1.55;;;;;;;21.25;49.90;100963.03;5018354;28;20029;-68
2022/10/16 05:17:26;;;;;;;2.50;1.90;;;;;;;21.33;49.61;100972.66;5017177;28;20037;-68
2022/10/16 05:19:52;;;;;;;3.40;1.90;;;;;;;21.29;49.44;100968.75;5024310;28;20041;-68
2022/10/16 05:22:17;;;;;;;1.83;1.60;;;;;;;21.35;49.42;100983.91;5014064;28;20075;-68
2022/10/16 05:24:43;;;;;;;2.45;1.80;;;;;;;21.35;49.57;100971.47;5001773;28;21872;-68
2022/10/16 05:27:10;;;;;;;2.70;1.85;;;;;;;21.33;49.18;100964.72;5003408;28;20670;-67
2022/10/16 05:29:36;;;;;;;2.20;2.00;;;;;;;21.33;49.26;100976.16;5016822;28;20120;-67
2022/10/16 05:32:01;;;;;;;2.88;2.00;;;;;;;21.32;49.35;100973.69;5016755;28;20044;-67
2022/10/16 05:34:27;;;;;;;2.13;1.65;;;;;;;21.29;49.75;100982.81;5016143;28;20084;-67
2022/10/16 05:36:52;;;;;;;1.40;1.30;;;;;;;21.30;49.63;100987.13;5003228;28;20741;-67
2022/10/16 05:39:18;;;;;;;2.30;1.60;;;;;;;21.32;49.29;100992.22;5007198;28;20086;-68
2022/10/16 05:41:44;;;;;;;3.17;1.73;;;;;;;21.34;49.58;100995.50;4972195;28;20045;-67
2022/10/16 05:44:10;;;;;;;2.35;1.90;;;;;;;21.29;49.89;100995.25;5020863;28;20029;-67
2022/10/16 05:46:36;;;;;;;1.73;1.63;;;;;;;21.32;49.56;100989.56;5016854;28;20479;-68
2022/10/16 05:49:01;;;;;;;1.92;1.73;;;;;;;21.32;49.45;100986.94;5013371;28;20320;-67
2022/10/16 05:51:27;;;;;;;2.97;1.48;;;;;;;21.31;49.40;100999.34;5012493;28;20096;-68
2022/10/16 05:53:52;;;;;;;1.55;1.45;;;;;;;21.30;49.34;100989.75;5019227;28;20032;-68
2022/10/16 05:56:18;;;;;;;2.55;1.83;;;;;;;21.30;49.43;100992.41;5013300;28;20072;-67
2022/10/16 05:58:44;;;;;;;2.72;1.88;;;;;;;21.29;49.56;100982.00;4972518;28;20529;-68
2022/10/16 06:01:17;;;;;;;1.95;1.73;;;;;;;21.29;49.52;100988.13;5013751;28;20554;-68
2022/10/16 06:03:43;;;;;;;1.98;1.70;;;;;;;21.27;49.71;100992.78;5016185;28;20037;-67
2022/10/16 06:06:13;;;;;;;2.85;1.75;;;;;;;21.30;49.73;101004.84;5013768;28;20068;-68
2022/10/16 06:08:40;;;;;;;2.75;1.73;;;;;;;21.32;49.58;101018.72;5014520;28;21937;-67
2022/10/16 06:11:11;;;;;;;2.50;1.70;;;;;;;21.29;49.57;101017.25;5014064;28;20832;-67
2022/10/16 06:13:38;;;;;;;1.75;1.63;;;;;;;21.30;49.40;101024.19;4992072;28;20029;-67
2022/10/16 06:16:04;;;;;;;3.05;1.90;;;;;;;21.30;49.39;101029.50;5015699;28;20149;-68
2022/10/16 06:18:30;;;;;;;2.05;1.70;;;;;;;21.31;49.64;101030.31;5017261;28;21073;-67
2022/10/16 06:20:56;;;;;;;2.55;1.65;;;;;;;21.29;49.56;101030.50;5000025;28;20823;-67
2022/10/16 06:23:23;;;;;;;2.85;1.58;;;;;;;21.30;49.40;101028.69;5015407;28;20037;-66
2022/10/16 06:25:48;;;;;;;2.40;1.75;;;;;;;21.29;49.34;101029.69;5016375;28;20042;-66
2022/10/16 06:28:14;;;;;;;1.67;1.42;;;;;;;21.25;49.36;101037.19;5013750;28;20049;-66
2022/10/16 06:30:40;;;;;;;3.05;2.15;;;;;;;21.28;49.49;101030.69;4989994;28;20033;-69
2022/10/16 06:33:06;;;;;;;2.83;1.80;;;;;;;21.28;49.60;101034.16;5011613;28;20045;-70
2022/10/16 06:35:31;;;;;;;1.95;1.60;;;;;;;21.25;49.91;101039.81;5017344;28;20438;-73
2022/10/16 06:37:58;;;;;;;2.30;1.60;;;;;;;21.31;49.67;101046.22;5014940;28;20084;-74
2022/10/16 06:40:23;;;;;;;4.40;2.08;;;;;;;21.30;49.42;101049.88;5014228;28;20458;-74
2022/10/16 06:42:50;;;;;;;2.28;1.60;;;;;;;21.29;49.47;101041.09;5014282;28;20045;-74
2022/10/16 06:45:15;;;;;;;2.25;1.70;;;;;;;21.30;49.64;101052.50;5001563;28;20565;-74
2022/10/16 06:47:41;;;;;;;3.92;1.92;;;;;;;21.27;49.44;101055.53;5001396;28;20041;-74
2022/10/16 06:50:07;;;;;;;4.32;1.98;;;;;;;21.32;49.32;101050.50;5012865;28;20049;-74
2022/10/16 06:52:33;;;;;;;1.90;1.70;;;;;;;21.30;49.34;101061.28;5013230;28;20036;-74
2022/10/16 06:54:59;;;;;;;5.45;2.45;;;;;;;21.27;49.40;101064.31;5015694;28;20043;-75
2022/10/16 06:57:25;;;;;;;1.98;1.63;;;;;;;21.28;49.64;101065.94;5014234;28;20045;-74
2022/10/16 06:59:50;;;;;;;2.28;1.65;;;;;;;21.26;49.74;101075.09;5013314;28;20044;-74
2022/10/16 07:02:16;;;;;;;2.60;1.98;;;;;;;21.30;49.48;101077.16;4983019;28;20056;-74
2022/10/16 07:04:41;;;;;;;2.45;1.70;;;;;;;21.31;49.34;101083.28;4992988;28;20041;-75
2022/10/16 07:07:07;;;;;;;4.38;1.90;;;;;;;21.27;49.30;101088.13;4994076;28;20049;-74
2022/10/16 07:09:32;;;;;;;2.40;1.45;;;;;;;21.26;49.39;101080.38;5017614;28;20345;-74
2022/10/16 07:11:58;;;;;;;1.90;1.60;;;;;;;21.26;49.36;101093.63;5013179;28;20038;-74
2022/10/16 07:14:23;;;;;;;3.55;1.98;;;;;;;21.26;49.60;101101.56;5008471;28;20038;-70
2022/10/16 07:16:49;;;;;;;6.82;3.80;;;;;;;21.25;49.80;101107.88;5011066;28;20570;-70
2022/10/16 07:19:17;;;;;;;3.35;1.90;;;;;;;21.23;49.54;101112.50;4985320;28;20109;-68
2022/10/16 07:21:43;;;;;;;2.67;1.92;;;;;;;21.28;49.70;101118.91;5014120;28;20040;-70
2022/10/16 07:24:16;;;;;;;6.20;1.90;;;;;;;21.28;49.26;101124.22;5009163;28;20052;-70
2022/10/16 07:26:44;;;;;;;5.18;1.92;;;;;;;21.27;49.12;101127.03;5017355;28;20049;-73
2022/10/16 07:29:16;;;;;;;11.50;2.03;;;;;;;21.29;49.01;101127.69;4995320;28;20582;-73
2022/10/16 07:31:42;;;;;;;4.80;1.80;;;;;;;21.27;48.91;101127.03;5010134;28;20135;-73
2022/10/16 07:34:09;;;;;;;3.33;1.92;;;;;;;21.30;48.86;101138.09;4989099;28;20116;-74
2022/10/16 07:36:35;;;;;;;6.57;2.10;;;;;;;21.25;49.14;101139.66;5015536;28;20069;-75
2022/10/16 07:39:00;;;;;;;3.05;1.80;;;;;;;21.26;48.98;101150.06;4996792;28;20038;-73
2022/10/16 07:41:26;;;;;;;3.28;2.08;;;;;;;21.26;48.90;101155.34;5013172;28;20049;-72
2022/10/16 07:43:52;;;;;;;3.78;2.00;;;;;;;21.25;48.97;101158.19;5014164;28;20033;-75
2022/10/16 07:46:19;;;;;;;3.50;1.63;;;;;;;21.24;49.08;101157.38;5018518;28;20549;-75
2022/10/16 07:48:46;;;;;;;3.35;1.98;;;;;;;21.22;49.11;101159.34;5014273;28;20029;-73
2022/10/16 07:51:13;;;;;;;4.53;2.10;;;;;;;21.22;48.87;101159.34;4995176;28;20188;-73
2022/10/16 07:53:39;;;;;;;7.55;1.70;;;;;;;21.23;48.62;101155.69;5018830;28;20125;-73
2022/10/16 07:56:06;;;;;;;3.28;1.98;;;;;;;21.23;48.53;101157.53;5010820;28;20092;-73
2022/10/16 07:58:33;;;;;;;3.83;2.20;;;;;;;21.25;48.45;101160.84;5018077;28;20356;-73
2022/10/16 08:01:02;;;;;;;3.10;2.13;;;;;;;21.25;48.82;101166.13;5017343;28;20041;-72
2022/10/16 08:03:28;;;;;;;2.97;1.70;;;;;;;21.22;48.58;101180.53;5012151;28;20025;-73
2022/10/16 08:05:54;;;;;;;2.60;1.90;;;;;;;21.23;48.74;101176.88;4985781;28;20115;-72
2022/10/16 08:08:19;;;;;;;5.82;2.03;;;;;;;21.25;48.62;101182.03;5014846;28;20045;-71
2022/10/16 08:10:45;;;;;;;10.98;2.28;;;;;;;21.28;48.60;101181.66;5011139;28;20169;-71
2022/10/16 08:13:12;;;;;;;4.57;1.90;;;;;;;21.28;48.45;101179.00;4978606;28;20047;-72
2022/10/16 08:15:38;;;;;;;4.60;2.28;;;;;;;21.21;48.66;101175.41;5008083;28;20045;-72
2022/10/16 08:18:05;;;;;;;3.85;1.80;;;;;;;21.27;48.79;101185.31;5012805;28;20037;-72
2022/10/16 08:20:34;;;;;;;1.85;1.50;;;;;;;21.26;48.55;101181.03;5012223;28;20037;-71
2022/10/16 08:23:00;;;;;;;3.50;2.22;;;;;;;21.24;48.70;101190.94;4992943;28;20040;-72
2022/10/16 08:25:27;;;;;;;4.55;2.00;;;;;;;21.24;48.87;101193.59;5008218;28;20152;-71
2022/10/16 08:27:52;;;;;;;3.47;1.77;;;;;;;21.28;48.65;101194.91;5013985;28;20125;-71
2022/10/16 08:30:20;;;;;;;8.90;2.00;;;;;;;21.29;48.83;101204.50;5013171;28;20067;-71
2022/10/16 08:32:46;;;;;;;4.22;2.00;;;;;;;21.26;48.68;101203.03;5008830;28;20045;-72
2022/10/16 08:35:13;;;;;;;4.53;1.67;;;;;;;21.27;48.54;101211.81;5013540;28;20045;-71
2022/10/16 08:37:39;;;;;;;5.35;2.30;;;;;;;21.24;48.46;101209.50;4964362;28;20120;-72
2022/10/16 08:40:18;;;;;;;2.83;1.83;;;;;;;21.29;48.13;101215.91;5014324;28;20029;-73
2022/10/16 08:42:46;;;;;;;5.47;1.85;;;;;;;21.29;48.46;101221.22;5019906;28;20108;-73
2022/10/16 08:45:38;;;;;;;5.05;1.63;;;;;;;21.30;48.26;101230.81;5013667;28;20499;-72
2022/10/16 08:48:30;;;;;;;3.95;2.03;;;;;;;21.32;48.54;101231.44;5014046;28;20042;-71
2022/10/16 08:50:55;;;;;;;3.92;1.67;;;;;;;21.33;48.41;101224.31;5003301;28;20029;-71
2022/10/16 08:53:28;;;;;;;4.07;1.63;;;;;;;21.26;48.40;101229.53;5001937;28;20408;-72
2022/10/16 08:55:54;;;;;;;4.38;1.65;;;;;;;21.24;48.72;101234.19;4965350;28;20037;-72
2022/10/16 08:58:23;;;;;;;2.88;1.48;;;;;;;21.27;48.30;101233.00;5012707;28;20037;-72
2022/10/16 09:01:12;;;;;;;6.57;2.67;;;;;;;21.30;48.27;101257.28;5016035;28;20046;-71
2022/10/16 09:04:08;;;;;;;2.90;1.50;;;;;;;21.31;48.36;101248.34;4993187;28;20039;-73
2022/10/16 09:06:52;;;;;;;3.63;1.80;;;;;;;21.26;48.38;101247.25;5012411;28;20860;-71
2022/10/16 09:09:38;;;;;;;3.65;1.80;;;;;;;21.29;48.33;101268.06;5015481;28;20056;-72
2022/10/16 09:12:12;;;;;;;2.80;1.65;;;;;;;21.31;48.13;101279.31;4983258;28;20029;-71
2022/10/16 09:14:52;;;;;;;4.55;2.00;;;;;;;21.33;48.22;101283.41;5019003;28;20033;-72
2022/10/16 09:17:52;;;;;;;3.33;1.55;;;;;;;21.31;48.30;101287.25;5012340;28;20781;-72
2022/10/16 09:20:27;;;;;;;3.08;1.90;;;;;;;21.33;48.19;101303.78;5013025;28;20760;-72
2022/10/16 09:23:12;;;;;;;4.80;1.60;;;;;;;21.30;48.26;101288.25;5012491;28;20303;-72
2022/10/16 09:25:39;;;;;;;4.65;1.63;;;;;;;21.28;48.14;101291.09;5009023;28;20033;-72
2022/10/16 09:28:05;;;;;;;3.92;1.73;;;;;;;21.31;48.26;101296.03;4979594;28;20069;-72
2022/10/16 09:30:30;;;;;;;5.05;1.85;;;;;;;21.29;48.43;101302.50;5011697;28;20128;-72
2022/10/16 09:32:58;;;;;;;4.93;1.60;;;;;;;21.33;48.22;101303.78;5008264;28;20045;-72
2022/10/16 09:35:45;;;;;;;7.15;1.75;;;;;;;21.32;48.08;101318.88;5011155;28;20957;-71
2022/10/16 09:38:28;;;;;;;3.22;1.65;;;;;;;21.32;48.32;101312.75;5006524;28;20077;-73
2022/10/16 09:40:55;;;;;;;5.03;1.80;;;;;;;21.29;48.25;101321.03;5010598;28;20347;-72
2022/10/16 09:43:30;;;;;;;4.90;1.95;;;;;;;21.32;48.12;101312.75;4999362;28;20100;-71
2022/10/16 09:46:07;;;;;;;4.13;1.70;;;;;;;21.31;48.53;101325.16;4988771;28;20041;-72
2022/10/16 09:48:44;;;;;;;4.30;1.80;;;;;;;21.28;48.30;101317.56;5011576;28;20128;-72
2022/10/16 09:51:21;;;;;;;5.82;1.95;;;;;;;21.28;48.13;101333.47;5007545;28;20131;-71
2022/10/16 09:53:47;;;;;;;5.50;1.85;;;;;;;21.30;47.70;101325.34;5007873;28;20065;-72
2022/10/16 09:56:23;;;;;;;3.25;1.70;;;;;;;21.31;47.94;101334.94;5007413;28;20463;-72
2022/10/16 09:58:54;;;;;;;8.68;2.05;;;;;;;21.29;48.15;101337.75;5007973;28;20033;-72
2022/10/16 10:01:30;;;;;;;3.22;1.40;;;;;;;21.33;48.29;101341.69;4979732;28;20415;-72
2022/10/16 10:04:00;;;;;;;7.30;2.10;;;;;;;21.34;48.28;101342.53;5012092;28;20045;-73
2022/10/16 10:06:37;;;;;;;7.15;2.00;;;;;;;21.30;48.24;101335.94;5010743;28;20038;-72
2022/10/16 10:09:21;;;;;;;7.20;2.28;;;;;;;21.33;48.40;101344.34;5010807;28;20047;-73
2022/10/16 10:11:48;;;;;;;8.35;2.20;;;;;;;21.32;48.29;101342.69;5004934;28;20930;-71
2022/10/16 10:14:23;;;;;;;10.75;2.08;;;;;;;21.31;48.08;101354.31;5015661;28;20065;-72
2022/10/16 10:16:50;;;;;;;12.70;2.45;;;;;;;21.29;48.46;101358.97;5002421;28;20040;-76
2022/10/16 10:19:18;;;;;;;12.43;2.58;;;;;;;21.24;48.41;101348.06;4993643;28;20072;-76
2022/10/16 10:21:44;;;;;;;9.73;2.17;;;;;;;21.19;48.51;101354.88;5016383;28;20029;-76
2022/10/16 10:24:15;;;;;;;11.27;2.38;;;;;;;21.23;48.44;101358.81;5014652;28;20042;-77
2022/10/16 10:27:18;;;;;;;6.70;1.88;;;;;;;21.17;48.60;101362.97;5014827;28;21212;-77
2022/10/16 10:30:05;;;;;;;12.82;2.65;;;;;;;21.12;48.65;101362.69;4987926;28;20053;-77
2022/10/16 10:32:43;;;;;;;12.10;2.45;;;;;;;21.07;48.48;101357.09;5009221;28;20912;-78
2022/10/16 10:35:22;;;;;;;10.00;2.78;;;;;;;21.07;48.56;101379.09;4985282;28;21910;-77
2022/10/16 10:38:10;;;;;;;9.77;2.35;;;;;;;21.05;48.85;101377.63;5014052;28;20109;-77
2022/10/16 10:41:04;;;;;;;12.68;2.75;;;;;;;21.05;48.74;101378.44;5014665;28;20851;-76
2022/10/16 10:43:53;;;;;;;10.50;3.25;;;;;;;21.06;48.60;101387.22;5010792;28;20045;-77
2022/10/16 10:46:31;;;;;;;10.23;2.42;;;;;;;21.08;48.69;101394.00;5010588;28;20918;-77
2022/10/16 10:49:40;;;;;;;7.25;2.83;;;;;;;21.05;49.57;101404.09;5009785;28;20049;-77
2022/10/16 10:52:36;;;;;;;10.48;2.35;;;;;;;21.02;49.57;101401.81;5011791;28;20064;-77
2022/10/16 10:55:31;;;;;;;12.63;3.25;;;;;;;21.09;49.46;101402.75;5014084;28;20052;-77
2022/10/16 10:58:09;;;;;;;5.50;2.67;;;;;;;21.03;49.48;101395.53;5006387;28;20487;-77
2022/10/16 11:01:03;;;;;;;7.65;2.42;;;;;;;21.02;49.69;101407.09;4999523;28;20064;-77
2022/10/16 11:03:52;;;;;;;7.18;2.47;;;;;;;20.99;49.58;101407.44;5000751;28;20037;-77
2022/10/16 11:06:31;;;;;;;5.18;2.15;;;;;;;20.97;49.73;101420.84;4987154;28;20045;-77
2022/10/16 11:09:09;;;;;;;9.02;1.98;;;;;;;20.95;49.58;101404.31;5012382;28;20049;-77
2022/10/16 11:11:40;;;;;;;10.57;2.03;;;;;;;21.00;49.32;101419.66;5009131;28;20056;-77
2022/10/16 11:14:19;;;;;;;10.93;2.60;;;;;;;20.98;49.51;101419.84;5010597;28;20033;-77
2022/10/16 11:16:58;;;;;;;9.20;2.22;;;;;;;20.95;49.80;101424.66;5010238;28;20128;-77
2022/10/16 11:19:38;;;;;;;6.47;2.78;;;;;;;20.92;49.87;101433.78;5010057;28;20446;-77
2022/10/16 11:22:23;;;;;;;6.57;2.20;;;;;;;20.96;49.97;101445.66;5001209;28;20170;-77
2022/10/16 11:24:55;;;;;;;5.90;2.30;;;;;;;20.96;50.10;101440.38;4998851;28;20033;-77
2022/10/16 11:27:44;;;;;;;7.38;2.42;;;;;;;20.94;50.13;101452.97;5016930;28;20496;-78
2022/10/16 11:30:19;;;;;;;6.18;2.10;;;;;;;20.95;50.11;101444.03;5020902;28;20045;-77
2022/10/16 11:32:59;;;;;;;6.75;3.03;;;;;;;20.92;49.72;101447.03;5016202;28;21192;-77
2022/10/16 11:35:34;;;;;;;6.63;2.15;;;;;;;20.92;49.48;101446.19;5013156;28;20029;-78
2022/10/16 11:38:10;;;;;;;6.20;2.60;;;;;;;20.94;49.78;101447.66;5008402;28;20046;-77